Time;durP1;ratioP1;P1;durP2;ratioP2;P2;SDS_P1;SDS_P2;PMS_P1;PMS_P2;Temp;Humidity;BMP_temperature;BMP_pressure;BME280_temperature;BME280_humidity;BME280_pressure;Samples;Min_cycle;Max_cycle;Signal;HPM_P1;HPM_P2
2024/04/09 00:00:32;;;;;;;7.85;2.30;;;;;;;;;;5376684;26;20806;-41
2024/04/09 00:02:58;;;;;;;7.70;2.60;;;;;;;;;;5372204;26;20328;-41
2024/04/09 00:05:31;;;;;;;5.43;2.35;;;;;;;;;;5376219;26;20331;-41
2024/04/09 00:07:58;;;;;;;5.25;2.08;;;;;;;;;;5380702;26;20233;-41
2024/04/09 00:10:24;;;;;;;5.72;2.15;;;;;;;;;;5375314;26;20293;-41
2024/04/09 00:12:52;;;;;;;5.70;2.20;;;;;;;;;;5385075;26;20319;-41
2024/04/09 00:15:18;;;;;;;5.53;2.22;;;;;;;;;;5369513;26;20284;-41
2024/04/09 00:17:55;;;;;;;7.15;2.67;;;;;;;;;;5379425;26;20659;-41
2024/04/09 00:20:23;;;;;;;7.07;2.45;;;;;;;;;;5361112;26;20233;-41
2024/04/09 00:22:49;;;;;;;8.70;3.55;;;;;;;;;;5371844;26;20301;-41
2024/04/09 00:25:18;;;;;;;6.65;2.17;;;;;;;;;;5381761;26;20276;-41
2024/04/09 00:27:44;;;;;;;4.72;2.28;;;;;;;;;;5378444;26;20284;-42
2024/04/09 00:30:10;;;;;;;7.10;2.25;;;;;;;;;;5377969;26;20487;-41
2024/04/09 00:32:36;;;;;;;4.53;2.20;;;;;;;;;;5365762;26;20284;-41
2024/04/09 00:35:03;;;;;;;3.97;2.20;;;;;;;;;;5370883;26;20280;-43
2024/04/09 00:37:35;;;;;;;13.18;3.17;;;;;;;;;;5377384;26;20355;-41
2024/04/09 00:40:02;;;;;;;9.45;2.70;;;;;;;;;;5364879;26;20315;-41
2024/04/09 00:42:28;;;;;;;3.90;2.20;;;;;;;;;;5374035;26;20296;-41
2024/04/09 00:44:54;;;;;;;4.10;2.50;;;;;;;;;;5384588;26;20233;-41
2024/04/09 00:47:22;;;;;;;5.03;1.95;;;;;;;;;;5372970;26;20284;-41
2024/04/09 00:49:48;;;;;;;9.32;2.33;;;;;;;;;;5381780;26;20246;-41
2024/04/09 00:52:14;;;;;;;6.32;2.80;;;;;;;;;;5383831;26;20225;-41
2024/04/09 00:54:43;;;;;;;8.48;2.55;;;;;;;;;;5367328;26;20638;-41
2024/04/09 00:57:10;;;;;;;7.03;2.10;;;;;;;;;;5375168;26;20287;-41
2024/04/09 00:59:36;;;;;;;7.32;2.67;;;;;;;;;;5357468;26;20238;-41
2024/04/09 01:02:04;;;;;;;4.95;2.05;;;;;;;;;;5366758;26;20324;-41
2024/04/09 01:04:30;;;;;;;10.43;2.50;;;;;;;;;;5382085;26;20229;-41
2024/04/09 01:06:56;;;;;;;3.90;2.30;;;;;;;;;;5361356;26;20291;-41
2024/04/09 01:09:22;;;;;;;4.28;2.53;;;;;;;;;;5375117;26;20484;-41
2024/04/09 01:11:48;;;;;;;9.05;2.20;;;;;;;;;;5379031;26;20562;-41
2024/04/09 01:14:13;;;;;;;4.57;2.15;;;;;;;;;;5380082;26;20237;-41
2024/04/09 01:16:39;;;;;;;7.15;2.33;;;;;;;;;;5373052;26;20254;-41
2024/04/09 01:19:05;;;;;;;8.00;2.65;;;;;;;;;;5374639;26;20836;-41
2024/04/09 01:21:31;;;;;;;4.82;2.15;;;;;;;;;;5380376;26;20299;-41
2024/04/09 01:23:58;;;;;;;9.43;2.58;;;;;;;;;;5357701;26;20503;-41
2024/04/09 01:26:24;;;;;;;6.65;2.70;;;;;;;;;;5365203;26;20298;-41
2024/04/09 01:28:50;;;;;;;12.55;2.22;;;;;;;;;;5356146;26;20235;-41
2024/04/09 01:31:16;;;;;;;13.77;2.55;;;;;;;;;;5371462;26;20231;-41
2024/04/09 01:33:43;;;;;;;5.28;2.30;;;;;;;;;;5370949;26;20509;-41
2024/04/09 01:36:10;;;;;;;7.40;2.13;;;;;;;;;;5364926;26;20280;-41
2024/04/09 01:38:36;;;;;;;8.90;2.88;;;;;;;;;;5363433;26;20276;-41
2024/04/09 01:41:02;;;;;;;9.35;2.70;;;;;;;;;;5372909;26;20233;-41
2024/04/09 01:43:28;;;;;;;4.25;2.00;;;;;;;;;;5377617;26;20279;-41
2024/04/09 01:45:54;;;;;;;9.23;2.47;;;;;;;;;;5371556;26;20234;-41
2024/04/09 01:48:22;;;;;;;4.65;2.40;;;;;;;;;;5374858;26;20244;-41
2024/04/09 01:50:47;;;;;;;5.80;2.20;;;;;;;;;;5377651;26;20490;-41
2024/04/09 01:53:13;;;;;;;5.10;2.38;;;;;;;;;;5379605;26;20316;-41
2024/04/09 01:55:40;;;;;;;6.22;2.78;;;;;;;;;;5379191;26;20678;-41
2024/04/09 01:58:07;;;;;;;7.30;2.20;;;;;;;;;;5376377;26;20533;-41
2024/04/09 02:00:35;;;;;;;4.43;2.38;;;;;;;;;;5372854;26;20289;-41
2024/04/09 02:03:01;;;;;;;8.57;2.50;;;;;;;;;;5378368;26;20809;-41
2024/04/09 02:05:27;;;;;;;4.70;2.22;;;;;;;;;;5363671;26;20237;-41
2024/04/09 02:07:53;;;;;;;4.95;2.45;;;;;;;;;;5377672;26;20234;-41
2024/04/09 02:10:19;;;;;;;6.82;2.65;;;;;;;;;;5373615;26;20320;-41
2024/04/09 02:12:45;;;;;;;5.63;2.42;;;;;;;;;;5382446;26;20631;-41
2024/04/09 02:15:17;;;;;;;6.75;2.30;;;;;;;;;;5368445;26;20275;-41
2024/04/09 02:17:43;;;;;;;5.85;2.67;;;;;;;;;;5373891;26;20318;-41
2024/04/09 02:20:10;;;;;;;6.18;2.72;;;;;;;;;;5377032;26;20241;-41
2024/04/09 02:22:36;;;;;;;9.15;2.45;;;;;;;;;;5382738;26;20280;-41
2024/04/09 02:25:02;;;;;;;8.85;2.67;;;;;;;;;;5361426;26;20237;-41
2024/04/09 02:27:28;;;;;;;7.55;2.20;;;;;;;;;;5381422;26;20319;-41
2024/04/09 02:29:54;;;;;;;8.18;2.65;;;;;;;;;;5380212;26;20230;-41
2024/04/09 02:32:20;;;;;;;5.97;3.28;;;;;;;;;;5377221;26;20616;-41
2024/04/09 02:34:47;;;;;;;4.00;2.17;;;;;;;;;;5373923;26;21051;-41
2024/04/09 02:37:13;;;;;;;5.50;2.50;;;;;;;;;;5375834;26;20281;-41
2024/04/09 02:39:38;;;;;;;6.78;2.72;;;;;;;;;;5367382;26;20278;-41
2024/04/09 02:42:04;;;;;;;3.78;2.03;;;;;;;;;;5378683;26;20330;-41
2024/04/09 02:44:31;;;;;;;7.47;2.15;;;;;;;;;;5380863;26;20293;-41
2024/04/09 02:46:57;;;;;;;5.53;2.53;;;;;;;;;;5380933;26;20268;-41
2024/04/09 02:49:22;;;;;;;4.32;2.33;;;;;;;;;;5376309;26;20237;-41
2024/04/09 02:51:48;;;;;;;8.20;3.10;;;;;;;;;;5374692;26;20231;-41
2024/04/09 02:54:14;;;;;;;6.22;2.63;;;;;;;;;;5373439;26;20476;-41
2024/04/09 02:56:40;;;;;;;6.25;2.60;;;;;;;;;;5379316;26;20276;-41
2024/04/09 02:59:07;;;;;;;4.47;2.40;;;;;;;;;;5364555;26;20895;-41
2024/04/09 03:01:33;;;;;;;5.30;2.30;;;;;;;;;;5366397;26;20606;-41
2024/04/09 03:04:00;;;;;;;6.75;2.50;;;;;;;;;;5363013;26;20230;-41
2024/04/09 03:06:26;;;;;;;6.57;2.58;;;;;;;;;;5361905;26;20254;-41
2024/04/09 03:08:54;;;;;;;6.35;2.47;;;;;;;;;;5367065;26;20247;-41
2024/04/09 03:11:20;;;;;;;6.03;2.53;;;;;;;;;;5379084;26;20323;-41
2024/04/09 03:13:49;;;;;;;7.57;2.70;;;;;;;;;;5373767;26;20644;-41
2024/04/09 03:16:16;;;;;;;3.75;2.58;;;;;;;;;;5363050;26;20486;-41
2024/04/09 03:18:42;;;;;;;5.13;2.47;;;;;;;;;;5374830;26;20382;-41
2024/04/09 03:21:08;;;;;;;5.95;2.38;;;;;;;;;;5375347;26;20233;-41
2024/04/09 03:23:34;;;;;;;5.97;2.50;;;;;;;;;;5381681;26;20249;-41
2024/04/09 03:26:01;;;;;;;7.30;2.50;;;;;;;;;;5353637;26;20487;-37
2024/04/09 03:28:27;;;;;;;10.30;2.45;;;;;;;;;;5358893;26;20604;-47
2024/04/09 03:30:59;;;;;;;12.85;2.95;;;;;;;;;;5369761;26;20753;-49
2024/04/09 03:33:26;;;;;;;6.00;2.67;;;;;;;;;;5371005;26;20237;-42
2024/04/09 03:35:55;;;;;;;8.73;2.45;;;;;;;;;;5376311;26;20292;-42
2024/04/09 03:38:21;;;;;;;4.88;2.40;;;;;;;;;;5372181;26;20436;-43
2024/04/09 03:41:00;;;;;;;3.45;2.50;;;;;;;;;;5357474;26;20235;-39
2024/04/09 03:43:26;;;;;;;9.85;2.58;;;;;;;;;;5359515;26;20624;-44
2024/04/09 03:46:06;;;;;;;6.20;2.17;;;;;;;;;;5364843;26;20233;-36
2024/04/09 03:48:32;;;;;;;6.35;2.33;;;;;;;;;;5373434;26;20280;-36
2024/04/09 03:50:58;;;;;;;7.97;3.05;;;;;;;;;;5368871;26;20242;-36
2024/04/09 03:53:24;;;;;;;4.22;2.58;;;;;;;;;;5384601;26;20230;-37
2024/04/09 03:55:57;;;;;;;6.28;2.90;;;;;;;;;;5378606;26;20686;-36
2024/04/09 03:58:26;;;;;;;5.60;2.65;;;;;;;;;;5372520;26;20323;-36
2024/04/09 04:00:56;;;;;;;8.02;2.80;;;;;;;;;;5359345;26;20226;-36
2024/04/09 04:03:21;;;;;;;8.90;2.80;;;;;;;;;;5365994;26;20492;-36
2024/04/09 04:05:51;;;;;;;8.10;2.55;;;;;;;;;;5375157;26;20273;-36
2024/04/09 04:08:17;;;;;;;10.93;3.33;;;;;;;;;;5381927;26;20449;-36
2024/04/09 04:10:43;;;;;;;9.85;2.78;;;;;;;;;;5376580;26;20324;-46
2024/04/09 04:13:09;;;;;;;14.35;3.33;;;;;;;;;;5374612;26;20283;-43
2024/04/09 04:15:35;;;;;;;12.13;3.35;;;;;;;;;;5381951;26;20229;-43
2024/04/09 04:18:01;;;;;;;5.38;2.65;;;;;;;;;;5372810;26;20484;-41
2024/04/09 04:20:27;;;;;;;10.07;3.50;;;;;;;;;;5369027;26;20234;-47
2024/04/09 04:23:00;;;;;;;17.65;3.08;;;;;;;;;;5370466;26;20234;-41
2024/04/09 04:25:26;;;;;;;6.78;2.95;;;;;;;;;;5379862;26;20328;-39
2024/04/09 04:27:52;;;;;;;6.10;2.72;;;;;;;;;;5380734;26;20570;-43
2024/04/09 04:30:18;;;;;;;7.82;2.70;;;;;;;;;;5371079;26;20241;-42
2024/04/09 04:32:43;;;;;;;11.20;3.40;;;;;;;;;;5378152;26;20237;-43
2024/04/09 04:35:10;;;;;;;5.53;2.95;;;;;;;;;;5377392;26;20242;-42
2024/04/09 04:37:36;;;;;;;13.77;3.05;;;;;;;;;;5367660;26;20242;-42
2024/04/09 04:40:03;;;;;;;12.52;3.10;;;;;;;;;;5376452;26;20233;-42
2024/04/09 04:42:29;;;;;;;7.35;2.67;;;;;;;;;;5379699;26;20234;-42
2024/04/09 04:44:55;;;;;;;7.18;3.22;;;;;;;;;;5380366;26;20441;-42
2024/04/09 04:47:21;;;;;;;8.00;3.17;;;;;;;;;;5379811;26;20237;-42
2024/04/09 04:49:47;;;;;;;17.08;3.28;;;;;;;;;;5374570;26;20601;-41
2024/04/09 04:52:13;;;;;;;8.60;3.45;;;;;;;;;;5369480;26;20288;-42
2024/04/09 04:54:39;;;;;;;5.97;3.30;;;;;;;;;;5382820;26;20679;-42
2024/04/09 04:57:05;;;;;;;8.10;3.42;;;;;;;;;;5375548;26;20283;-42
2024/04/09 04:59:31;;;;;;;8.88;3.30;;;;;;;;;;5377025;26;20276;-42
2024/04/09 05:01:58;;;;;;;6.72;3.33;;;;;;;;;;5349342;26;20257;-42
2024/04/09 05:04:24;;;;;;;10.32;3.15;;;;;;;;;;5359161;26;20233;-42
2024/04/09 05:06:50;;;;;;;10.02;3.60;;;;;;;;;;5377331;26;20238;-42
2024/04/09 05:09:17;;;;;;;11.73;3.30;;;;;;;;;;5371481;26;20241;-42
2024/04/09 05:11:43;;;;;;;16.77;4.10;;;;;;;;;;5381315;26;20280;-42
2024/04/09 05:14:10;;;;;;;11.68;3.63;;;;;;;;;;5382599;26;20469;-42
2024/04/09 05:16:36;;;;;;;6.55;3.90;;;;;;;;;;5372794;26;20305;-42
2024/04/09 05:19:02;;;;;;;12.68;4.22;;;;;;;;;;5379218;26;20234;-42
2024/04/09 05:21:28;;;;;;;8.23;3.63;;;;;;;;;;5382423;26;20304;-42
2024/04/09 05:23:54;;;;;;;16.67;4.22;;;;;;;;;;5367298;26;20249;-42
2024/04/09 05:26:20;;;;;;;9.40;3.78;;;;;;;;;;5382264;26;20511;-42
2024/04/09 05:28:46;;;;;;;8.52;3.35;;;;;;;;;;5378759;26;20537;-42
2024/04/09 05:31:12;;;;;;;8.23;3.40;;;;;;;;;;5382183;26;20307;-42
2024/04/09 05:33:38;;;;;;;11.63;3.33;;;;;;;;;;5380635;26;20623;-42
2024/04/09 05:36:04;;;;;;;8.13;3.33;;;;;;;;;;5381628;26;20229;-42
2024/04/09 05:38:30;;;;;;;12.35;3.05;;;;;;;;;;5374261;26;20233;-42
2024/04/09 05:40:58;;;;;;;12.68;3.40;;;;;;;;;;5382019;26;20226;-42
2024/04/09 05:43:24;;;;;;;14.95;3.53;;;;;;;;;;5381917;26;20292;-42
2024/04/09 05:45:50;;;;;;;10.65;3.10;;;;;;;;;;5379575;26;20226;-42
2024/04/09 05:48:16;;;;;;;9.23;3.33;;;;;;;;;;5381296;26;20323;-41
2024/04/09 05:50:42;;;;;;;12.50;3.78;;;;;;;;;;5381059;26;20333;-42
2024/04/09 05:53:08;;;;;;;9.50;3.13;;;;;;;;;;5371731;26;20605;-42
2024/04/09 05:55:34;;;;;;;11.23;3.30;;;;;;;;;;5382989;26;20390;-42
2024/04/09 05:58:00;;;;;;;15.07;4.47;;;;;;;;;;5377668;26;20289;-42
2024/04/09 06:00:26;;;;;;;9.10;3.22;;;;;;;;;;5367749;26;20316;-42
2024/04/09 06:02:53;;;;;;;12.07;3.70;;;;;;;;;;5361327;26;20237;-42
2024/04/09 06:05:19;;;;;;;12.57;3.28;;;;;;;;;;5377044;26;20490;-42
2024/04/09 06:07:46;;;;;;;10.15;3.05;;;;;;;;;;5369658;26;20237;-42
2024/04/09 06:10:14;;;;;;;13.65;3.75;;;;;;;;;;5384275;26;20805;-42
2024/04/09 06:12:40;;;;;;;7.75;2.70;;;;;;;;;;5382351;26;20324;-42
2024/04/09 06:15:06;;;;;;;12.75;3.50;;;;;;;;;;5377547;26;20319;-42
2024/04/09 06:17:33;;;;;;;12.63;3.60;;;;;;;;;;5357981;26;20335;-42
2024/04/09 06:19:58;;;;;;;9.40;2.88;;;;;;;;;;5366796;26;20281;-42
2024/04/09 06:22:25;;;;;;;10.75;4.05;;;;;;;;;;5371948;26;20257;-42
2024/04/09 06:24:51;;;;;;;10.50;3.35;;;;;;;;;;5375401;26;20289;-42
2024/04/09 06:27:17;;;;;;;7.35;3.40;;;;;;;;;;5370482;26;20539;-42
2024/04/09 06:29:43;;;;;;;6.70;2.65;;;;;;;;;;5369728;26;20241;-42
2024/04/09 06:32:09;;;;;;;12.50;3.85;;;;;;;;;;5380021;26;20662;-42
2024/04/09 06:34:35;;;;;;;7.00;2.50;;;;;;;;;;5372701;26;20656;-42
2024/04/09 06:37:01;;;;;;;14.18;3.20;;;;;;;;;;5361063;26;20285;-42
2024/04/09 06:39:27;;;;;;;16.60;2.95;;;;;;;;;;5369138;26;20237;-42
2024/04/09 06:41:53;;;;;;;8.60;2.88;;;;;;;;;;5383830;26;20901;-42
2024/04/09 06:44:19;;;;;;;12.20;3.08;;;;;;;;;;5373134;26;20248;-42
2024/04/09 06:46:45;;;;;;;7.32;2.80;;;;;;;;;;5370892;26;20329;-42
2024/04/09 06:49:11;;;;;;;13.57;3.40;;;;;;;;;;5363385;26;20239;-42
2024/04/09 06:51:37;;;;;;;5.22;2.45;;;;;;;;;;5370088;26;20285;-42
2024/04/09 06:54:03;;;;;;;9.13;2.40;;;;;;;;;;5379036;26;20238;-42
2024/04/09 06:56:29;;;;;;;9.27;3.10;;;;;;;;;;5383101;26;20234;-42
2024/04/09 06:58:56;;;;;;;14.55;3.38;;;;;;;;;;5383741;26;20237;-42
2024/04/09 07:01:22;;;;;;;7.95;3.00;;;;;;;;;;5379776;26;20525;-42
2024/04/09 07:03:48;;;;;;;7.63;2.85;;;;;;;;;;5383142;26;20249;-41
2024/04/09 07:06:14;;;;;;;7.97;2.88;;;;;;;;;;5366947;26;20246;-42
2024/04/09 07:08:40;;;;;;;5.28;2.60;;;;;;;;;;5373566;26;20230;-41
2024/04/09 07:11:06;;;;;;;9.38;2.90;;;;;;;;;;5379524;26;20704;-42
2024/04/09 07:13:32;;;;;;;11.80;2.83;;;;;;;;;;5382647;26;20229;-42
2024/04/09 07:15:58;;;;;;;12.82;2.92;;;;;;;;;;5402750;26;20230;-42
2024/04/09 07:18:26;;;;;;;11.65;3.75;;;;;;;;;;5362198;26;20242;-42
2024/04/09 07:20:52;;;;;;;8.63;2.78;;;;;;;;;;5361909;26;20290;-42
2024/04/09 07:23:18;;;;;;;5.35;2.97;;;;;;;;;;5364053;26;20238;-42
2024/04/09 07:25:44;;;;;;;8.32;2.83;;;;;;;;;;5380378;26;20312;-41
2024/04/09 07:28:10;;;;;;;12.43;3.08;;;;;;;;;;5360454;26;20531;-42
2024/04/09 07:30:36;;;;;;;8.90;2.65;;;;;;;;;;5376730;26;20225;-42
2024/04/09 07:33:02;;;;;;;9.80;3.10;;;;;;;;;;5365789;26;20229;-42
2024/04/09 07:35:30;;;;;;;11.00;3.45;;;;;;;;;;5371994;26;20672;-42
2024/04/09 07:37:56;;;;;;;5.35;2.53;;;;;;;;;;5354652;26;20609;-44
2024/04/09 07:40:22;;;;;;;12.38;3.25;;;;;;;;;;5375756;26;20264;-42
2024/04/09 07:42:48;;;;;;;8.45;2.63;;;;;;;;;;5361287;26;20652;-42
2024/04/09 07:45:14;;;;;;;11.23;3.10;;;;;;;;;;5370435;26;20274;-42
2024/04/09 07:47:40;;;;;;;5.70;2.40;;;;;;;;;;5379635;26;20233;-42
2024/04/09 07:50:10;;;;;;;8.52;2.70;;;;;;;;;;5368167;26;20288;-42
2024/04/09 07:52:39;;;;;;;7.97;2.55;;;;;;;;;;5380821;26;20499;-42
2024/04/09 07:55:07;;;;;;;8.75;3.15;;;;;;;;;;5376876;26;20230;-42
2024/04/09 07:57:33;;;;;;;7.15;2.50;;;;;;;;;;5375264;26;20796;-41
2024/04/09 07:59:59;;;;;;;12.20;2.85;;;;;;;;;;5379575;26;20233;-42
2024/04/09 08:02:25;;;;;;;8.48;2.78;;;;;;;;;;5378164;26;20250;-42
2024/04/09 08:04:51;;;;;;;17.05;2.67;;;;;;;;;;5367328;26;20230;-42
2024/04/09 08:07:17;;;;;;;8.57;3.00;;;;;;;;;;5381881;26;20658;-42
2024/04/09 08:09:43;;;;;;;10.90;2.88;;;;;;;;;;5379417;26;20268;-42
2024/04/09 08:12:09;;;;;;;11.13;2.80;;;;;;;;;;5364898;26;20261;-42
2024/04/09 08:14:35;;;;;;;9.18;2.78;;;;;;;;;;5369595;26;20276;-42
2024/04/09 08:17:01;;;;;;;11.23;3.20;;;;;;;;;;5372813;26;20544;-42
2024/04/09 08:19:28;;;;;;;9.85;2.88;;;;;;;;;;5368328;26;20234;-42
2024/04/09 08:21:54;;;;;;;12.68;2.60;;;;;;;;;;5377236;26;20233;-42
2024/04/09 08:24:20;;;;;;;8.38;2.25;;;;;;;;;;5371582;26;20288;-42
2024/04/09 08:26:46;;;;;;;9.02;2.75;;;;;;;;;;5380045;26;20854;-42
2024/04/09 08:29:16;;;;;;;10.75;3.30;;;;;;;;;;5375426;26;20246;-42
2024/04/09 08:31:45;;;;;;;13.25;2.35;;;;;;;;;;5373280;26;20301;-42
2024/04/09 08:34:11;;;;;;;14.68;2.83;;;;;;;;;;5359110;26;20267;-42
2024/04/09 08:36:37;;;;;;;11.50;2.50;;;;;;;;;;5363358;26;20234;-42
2024/04/09 08:39:07;;;;;;;9.02;2.30;;;;;;;;;;5369550;26;20268;-42
2024/04/09 08:41:34;;;;;;;8.45;2.78;;;;;;;;;;5383680;26;20221;-42
2024/04/09 08:44:01;;;;;;;9.13;2.28;;;;;;;;;;5380623;26;20288;-43
2024/04/09 08:46:31;;;;;;;7.85;2.70;;;;;;;;;;5379755;26;20328;-42
2024/04/09 08:48:57;;;;;;;7.85;2.63;;;;;;;;;;5374623;26;20264;-42
2024/04/09 08:51:24;;;;;;;6.72;3.00;;;;;;;;;;5368954;26;20230;-42
2024/04/09 08:53:49;;;;;;;11.05;3.17;;;;;;;;;;5367431;26;20229;-42
2024/04/09 08:56:15;;;;;;;9.55;2.65;;;;;;;;;;5377340;26;20280;-42
2024/04/09 08:58:41;;;;;;;8.75;2.60;;;;;;;;;;5376170;26;20234;-43
2024/04/09 09:01:07;;;;;;;10.70;2.63;;;;;;;;;;5370247;26;20609;-42
2024/04/09 09:03:33;;;;;;;9.82;3.33;;;;;;;;;;5370150;26;20241;-41
2024/04/09 09:06:00;;;;;;;9.15;2.90;;;;;;;;;;5381053;26;20233;-42
2024/04/09 09:08:26;;;;;;;14.30;2.83;;;;;;;;;;5359936;26;20234;-42
2024/04/09 09:10:55;;;;;;;13.27;2.92;;;;;;;;;;5373515;26;20249;-42
2024/04/09 09:13:21;;;;;;;8.95;2.70;;;;;;;;;;5379861;26;20327;-42
2024/04/09 09:15:57;;;;;;;12.18;3.00;;;;;;;;;;5377542;26;20607;-42
2024/04/09 09:18:23;;;;;;;8.52;2.58;;;;;;;;;;5374173;26;20633;-45
2024/04/09 09:20:58;;;;;;;8.32;3.10;;;;;;;;;;5373446;26;20312;-42
2024/04/09 09:23:24;;;;;;;8.93;3.25;;;;;;;;;;5378970;26;20326;-42
2024/04/09 09:25:51;;;;;;;11.75;2.70;;;;;;;;;;5379958;26;20241;-42
2024/04/09 09:28:20;;;;;;;11.13;3.35;;;;;;;;;;5379765;26;20338;-42
2024/04/09 09:30:46;;;;;;;8.00;2.72;;;;;;;;;;5363080;26;20772;-42
2024/04/09 09:33:17;;;;;;;7.07;2.95;;;;;;;;;;5357283;26;20238;-42
2024/04/09 09:35:48;;;;;;;8.68;3.33;;;;;;;;;;5366878;26;20233;-42
2024/04/09 09:38:14;;;;;;;9.38;3.28;;;;;;;;;;5356218;26;20284;-42
2024/04/09 09:40:42;;;;;;;13.85;3.67;;;;;;;;;;5366389;26;20268;-42
2024/04/09 09:43:10;;;;;;;8.93;2.95;;;;;;;;;;5375423;26;20753;-42
2024/04/09 09:45:36;;;;;;;8.50;3.10;;;;;;;;;;5381668;26;20241;-42
2024/04/09 09:48:02;;;;;;;11.55;3.03;;;;;;;;;;5364482;26;20293;-42
2024/04/09 09:50:29;;;;;;;12.30;3.00;;;;;;;;;;5362502;26;20249;-42
2024/04/09 09:52:56;;;;;;;14.48;3.40;;;;;;;;;;5371014;26;20241;-42
2024/04/09 09:55:22;;;;;;;10.88;3.70;;;;;;;;;;5371187;26;20655;-42
2024/04/09 09:57:49;;;;;;;14.80;3.05;;;;;;;;;;5359404;26;20230;-42
2024/04/09 10:00:15;;;;;;;15.68;3.13;;;;;;;;;;5363335;26;20265;-42
2024/04/09 10:02:42;;;;;;;8.32;2.92;;;;;;;;;;5360587;26;20692;-42
2024/04/09 10:05:09;;;;;;;11.77;3.08;;;;;;;;;;5358504;26;20235;-42
2024/04/09 10:07:35;;;;;;;9.45;3.42;;;;;;;;;;5356097;26;20275;-42
2024/04/09 10:10:01;;;;;;;17.65;3.95;;;;;;;;;;5372310;26;20474;-42
2024/04/09 10:12:31;;;;;;;12.40;3.38;;;;;;;;;;5369853;26;20295;-42
2024/04/09 10:14:57;;;;;;;13.68;3.15;;;;;;;;;;5373707;26;20311;-42
2024/04/09 10:17:27;;;;;;;17.08;3.10;;;;;;;;;;5368535;26;20247;-42
2024/04/09 10:19:53;;;;;;;19.27;3.70;;;;;;;;;;5375298;26;20249;-42
2024/04/09 10:22:19;;;;;;;9.48;3.03;;;;;;;;;;5382882;26;20268;-42
2024/04/09 10:24:45;;;;;;;19.38;3.80;;;;;;;;;;5382110;26;20229;-42
2024/04/09 10:27:13;;;;;;;9.68;3.33;;;;;;;;;;5364525;26;20261;-42
2024/04/09 10:29:49;;;;;;;16.98;3.78;;;;;;;;;;5361787;26;20226;-42
2024/04/09 10:32:19;;;;;;;12.18;4.05;;;;;;;;;;5375575;26;20323;-42
2024/04/09 10:34:45;;;;;;;11.75;2.80;;;;;;;;;;5380939;26;20241;-42
2024/04/09 10:37:12;;;;;;;13.18;3.60;;;;;;;;;;5366820;26;20238;-42
2024/04/09 10:39:38;;;;;;;17.98;4.10;;;;;;;;;;5379862;26;20621;-42
2024/04/09 10:42:04;;;;;;;15.07;3.03;;;;;;;;;;5379427;26;20239;-42
2024/04/09 10:44:30;;;;;;;20.60;3.70;;;;;;;;;;5369998;26;20523;-42
2024/04/09 10:46:57;;;;;;;20.05;4.18;;;;;;;;;;5381040;26;20300;-42
2024/04/09 10:49:23;;;;;;;18.63;3.40;;;;;;;;;;5372607;26;20277;-42
2024/04/09 10:51:49;;;;;;;16.08;4.72;;;;;;;;;;5381818;26;20233;-42
2024/04/09 10:54:15;;;;;;;22.08;4.40;;;;;;;;;;5375459;26;20340;-42
2024/04/09 10:56:41;;;;;;;13.02;3.60;;;;;;;;;;5386140;26;20225;-42
2024/04/09 10:59:14;;;;;;;14.98;3.78;;;;;;;;;;5363468;26;20284;-42
2024/04/09 11:01:40;;;;;;;15.77;3.97;;;;;;;;;;5369291;26;20276;-42
2024/04/09 11:04:06;;;;;;;15.88;4.00;;;;;;;;;;5376560;26;20230;-42
2024/04/09 11:06:32;;;;;;;19.30;4.00;;;;;;;;;;5381261;26;20247;-42
2024/04/09 11:08:58;;;;;;;25.65;4.10;;;;;;;;;;5367297;26;20239;-42
2024/04/09 11:11:24;;;;;;;15.30;3.60;;;;;;;;;;5362732;26;20254;-42
2024/04/09 11:13:50;;;;;;;19.75;3.78;;;;;;;;;;5380727;26;20319;-42
2024/04/09 11:16:20;;;;;;;19.33;5.03;;;;;;;;;;5384994;26;20225;-42
2024/04/09 11:18:58;;;;;;;22.75;3.95;;;;;;;;;;5368230;26;20242;-42
2024/04/09 11:21:24;;;;;;;14.70;3.65;;;;;;;;;;5375408;26;20340;-42
2024/04/09 11:23:50;;;;;;;26.50;4.80;;;;;;;;;;5382087;26;20573;-42
2024/04/09 11:26:19;;;;;;;18.25;3.65;;;;;;;;;;5380940;26;20249;-42
2024/04/09 11:28:52;;;;;;;20.13;4.20;;;;;;;;;;5377603;26;20668;-42
2024/04/09 11:31:24;;;;;;;17.63;4.05;;;;;;;;;;5383323;26;20241;-42
2024/04/09 11:33:50;;;;;;;19.52;4.68;;;;;;;;;;5382530;26;20597;-42
2024/04/09 11:36:16;;;;;;;19.15;3.90;;;;;;;;;;5384190;26;20612;-42
2024/04/09 11:38:42;;;;;;;19.10;4.43;;;;;;;;;;5356804;26;20712;-42
2024/04/09 11:41:08;;;;;;;18.48;4.13;;;;;;;;;;5372599;26;20246;-42
2024/04/09 11:43:34;;;;;;;14.88;4.28;;;;;;;;;;5384847;26;20288;-42
2024/04/09 11:46:01;;;;;;;19.88;3.40;;;;;;;;;;5380934;26;20276;-42
2024/04/09 11:48:27;;;;;;;23.63;4.47;;;;;;;;;;5380758;26;20234;-42
2024/04/09 11:50:53;;;;;;;19.73;4.57;;;;;;;;;;5375663;26;20288;-41
2024/04/09 11:53:19;;;;;;;25.77;3.88;;;;;;;;;;5368373;26;20237;-42
2024/04/09 11:55:45;;;;;;;16.75;3.97;;;;;;;;;;5367382;26;20227;-42
2024/04/09 11:58:12;;;;;;;21.38;4.35;;;;;;;;;;5377808;26;20276;-42
2024/04/09 12:00:38;;;;;;;18.90;4.22;;;;;;;;;;5366520;26;20301;-42
2024/04/09 12:03:05;;;;;;;13.68;4.38;;;;;;;;;;5368222;26;20289;-42
2024/04/09 12:05:32;;;;;;;17.63;4.35;;;;;;;;;;5382589;26;20238;-42
2024/04/09 12:08:01;;;;;;;23.33;4.65;;;;;;;;;;5369788;26;20522;-42
2024/04/09 12:10:28;;;;;;;20.35;4.30;;;;;;;;;;5382023;26;20272;-42
2024/04/09 12:12:54;;;;;;;17.15;3.95;;;;;;;;;;5371854;26;20229;-42
2024/04/09 12:15:20;;;;;;;17.15;3.50;;;;;;;;;;5371563;26;20269;-42
2024/04/09 12:17:46;;;;;;;15.13;3.92;;;;;;;;;;5370655;26;20241;-43
2024/04/09 12:20:12;;;;;;;18.13;3.85;;;;;;;;;;5364635;26;20716;-42
2024/04/09 12:22:38;;;;;;;15.98;3.72;;;;;;;;;;5364300;26;20246;-42
2024/04/09 12:25:04;;;;;;;16.33;3.67;;;;;;;;;;5370797;26;20229;-45
2024/04/09 12:27:30;;;;;;;17.15;4.43;;;;;;;;;;5377979;26;20225;-37
2024/04/09 12:29:56;;;;;;;21.70;3.95;;;;;;;;;;5367315;26;20744;-39
2024/04/09 12:32:22;;;;;;;22.90;4.78;;;;;;;;;;5363312;26;20243;-39
2024/04/09 12:34:49;;;;;;;12.88;3.35;;;;;;;;;;5359835;26;20234;-39
2024/04/09 12:37:15;;;;;;;18.77;3.78;;;;;;;;;;5365164;26;20241;-39
2024/04/09 12:39:41;;;;;;;20.70;4.50;;;;;;;;;;5381835;26;20233;-39
2024/04/09 12:42:08;;;;;;;27.80;4.55;;;;;;;;;;5365411;26;20233;-39
2024/04/09 12:44:35;;;;;;;16.48;3.70;;;;;;;;;;5368121;26;20237;-39
2024/04/09 12:47:02;;;;;;;16.65;3.70;;;;;;;;;;5383403;26;20237;-39
2024/04/09 12:49:29;;;;;;;19.80;4.20;;;;;;;;;;5365957;26;20304;-39
2024/04/09 12:51:55;;;;;;;15.10;3.65;;;;;;;;;;5376411;26;20323;-39
2024/04/09 12:54:21;;;;;;;16.05;3.65;;;;;;;;;;5380509;26;20324;-39
2024/04/09 12:56:47;;;;;;;16.42;3.47;;;;;;;;;;5370655;26;20245;-39
2024/04/09 12:59:16;;;;;;;21.92;3.35;;;;;;;;;;5379021;26;20234;-39
2024/04/09 13:01:43;;;;;;;20.00;3.35;;;;;;;;;;5368920;26;20303;-39
2024/04/09 13:04:09;;;;;;;19.20;3.97;;;;;;;;;;5379235;26;20300;-40
2024/04/09 13:06:34;;;;;;;20.45;3.85;;;;;;;;;;5361556;26;20268;-40
2024/04/09 13:09:00;;;;;;;25.77;3.80;;;;;;;;;;5375199;26;20237;-39
2024/04/09 13:11:26;;;;;;;16.60;3.58;;;;;;;;;;5371821;26;20234;-39
2024/04/09 13:13:52;;;;;;;15.38;3.25;;;;;;;;;;5370270;26;20530;-39
2024/04/09 13:16:18;;;;;;;15.40;3.58;;;;;;;;;;5376067;26;20323;-39
2024/04/09 13:18:45;;;;;;;18.55;3.67;;;;;;;;;;5364683;26;20288;-39
2024/04/09 13:21:11;;;;;;;16.73;2.95;;;;;;;;;;5375837;26;20241;-39
2024/04/09 13:23:37;;;;;;;13.07;3.00;;;;;;;;;;5376272;26;20283;-39
2024/04/09 13:26:03;;;;;;;15.73;2.80;;;;;;;;;;5366356;26;20450;-39
2024/04/09 13:28:29;;;;;;;16.60;3.42;;;;;;;;;;5367353;26;20284;-39
2024/04/09 13:30:55;;;;;;;20.40;2.70;;;;;;;;;;5372520;26;20285;-39
2024/04/09 13:33:21;;;;;;;15.80;3.03;;;;;;;;;;5372714;26;20551;-39
2024/04/09 13:35:48;;;;;;;12.43;2.92;;;;;;;;;;5369975;26;20238;-39
2024/04/09 13:38:14;;;;;;;10.82;2.85;;;;;;;;;;5375197;26;20306;-39
2024/04/09 13:40:41;;;;;;;16.15;3.13;;;;;;;;;;5374592;26;20233;-39
2024/04/09 13:43:07;;;;;;;15.80;2.45;;;;;;;;;;5377044;26;20229;-39
2024/04/09 13:45:33;;;;;;;11.60;2.45;;;;;;;;;;5376455;26;20328;-39
2024/04/09 13:47:59;;;;;;;13.23;2.45;;;;;;;;;;5381652;26;20492;-39
2024/04/09 13:50:25;;;;;;;18.25;2.85;;;;;;;;;;5360421;26;20250;-39
2024/04/09 13:52:51;;;;;;;17.55;2.53;;;;;;;;;;5364187;26;20301;-39
2024/04/09 13:55:17;;;;;;;12.35;2.20;;;;;;;;;;5373495;26;20230;-39
2024/04/09 13:57:43;;;;;;;13.57;2.28;;;;;;;;;;5362659;26;20344;-39
2024/04/09 14:00:11;;;;;;;11.55;2.33;;;;;;;;;;5363725;26;20241;-39
2024/04/09 14:02:36;;;;;;;14.38;2.70;;;;;;;;;;5378712;26;20577;-39
2024/04/09 14:05:02;;;;;;;13.65;2.38;;;;;;;;;;5384675;26;20226;-39
2024/04/09 14:07:28;;;;;;;17.95;2.47;;;;;;;;;;5370099;26;20240;-39
2024/04/09 14:09:55;;;;;;;7.10;1.92;;;;;;;;;;5364395;26;20241;-39
2024/04/09 14:12:22;;;;;;;12.25;2.47;;;;;;;;;;5373812;26;20241;-39
2024/04/09 14:14:47;;;;;;;14.32;2.40;;;;;;;;;;5353281;26;20246;-39
2024/04/09 14:17:13;;;;;;;14.70;3.60;;;;;;;;;;5381193;26;20316;-39
2024/04/09 14:19:39;;;;;;;10.82;2.40;;;;;;;;;;5364276;26;20242;-39
2024/04/09 14:22:08;;;;;;;14.32;2.17;;;;;;;;;;5380074;26;20233;-39
2024/04/09 14:24:34;;;;;;;9.73;2.47;;;;;;;;;;5374736;26;20229;-39
2024/04/09 14:27:00;;;;;;;9.13;2.30;;;;;;;;;;5386189;26;20527;-39
2024/04/09 14:29:26;;;;;;;9.50;1.95;;;;;;;;;;5380589;26;20281;-39
2024/04/09 14:31:52;;;;;;;7.55;2.08;;;;;;;;;;5380830;26;20241;-39